BAW99 EGBB-EGBB
Flight info
| Callsign | BAW99 |
|---|---|
| Flight time | 0h 42m |
| Altitude | 5000 |
| Route | CHASE |
| Aircraft | CONC/H-SDE2E3FGHIRYW/X |
Departure
| Time | 2026-04-28 18:52 |
|---|---|
| Airport | Birmingham Airport (EGBB) |
Arrival
| Time | 2026-04-28 19:34 |
|---|---|
| Airport | Birmingham Airport (EGBB) |
| Time | Latitude | Longitude | Altitude | Speed | Heading |
|---|---|---|---|---|---|
| 2026-04-28 18:26 | 52.45277 | -1.73532 | 341 ft | 0 kts | 326° |
| 2026-04-28 18:42 | 52.45272 | -1.73527 | 341 ft | 1 kts | 338° |
| 2026-04-28 18:43 | 52.45258 | -1.73519 | 341 ft | 2 kts | 335° |
| 2026-04-28 18:43 | 52.45243 | -1.73508 | 342 ft | 2 kts | 336° |
| 2026-04-28 18:43 | 52.45229 | -1.73498 | 343 ft | 2 kts | 335° |
| 2026-04-28 18:43 | 52.45216 | -1.73489 | 343 ft | 0 kts | 336° |
| 2026-04-28 18:44 | 52.45209 | -1.73480 | 344 ft | 2 kts | 282° |
| 2026-04-28 18:44 | 52.45220 | -1.73473 | 344 ft | 0 kts | 218° |
| 2026-04-28 18:44 | 52.45221 | -1.73467 | 344 ft | 0 kts | 223° |
| 2026-04-28 18:45 | 52.45226 | -1.73460 | 344 ft | 0 kts | 238° |
| 2026-04-28 18:45 | 52.45227 | -1.73457 | 344 ft | 0 kts | 235° |
| 2026-04-28 18:47 | 52.45219 | -1.73473 | 344 ft | 5 kts | 231° |
| 2026-04-28 18:47 | 52.45177 | -1.73551 | 341 ft | 13 kts | 231° |
| 2026-04-28 18:47 | 52.45100 | -1.73723 | 332 ft | 22 kts | 228° |
| 2026-04-28 18:47 | 52.44995 | -1.73828 | 331 ft | 7 kts | 147° |
| 2026-04-28 18:48 | 52.44980 | -1.73815 | 332 ft | 2 kts | 155° |
| 2026-04-28 18:48 | 52.44946 | -1.73784 | 333 ft | 7 kts | 149° |
| 2026-04-28 18:48 | 52.44894 | -1.73731 | 335 ft | 10 kts | 148° |
| 2026-04-28 18:48 | 52.44842 | -1.73691 | 337 ft | 3 kts | 177° |
| 2026-04-28 18:49 | 52.44820 | -1.73693 | 337 ft | 0 kts | 189° |
| 2026-04-28 18:49 | 52.44817 | -1.73694 | 337 ft | 0 kts | 189° |
| 2026-04-28 18:49 | 52.44812 | -1.73696 | 337 ft | 2 kts | 187° |
| 2026-04-28 18:49 | 52.44764 | -1.73720 | 338 ft | 10 kts | 198° |
| 2026-04-28 18:50 | 52.44678 | -1.73692 | 340 ft | 18 kts | 144° |
| 2026-04-28 18:50 | 52.44552 | -1.73551 | 348 ft | 19 kts | 148° |
| 2026-04-28 18:50 | 52.44461 | -1.73456 | 352 ft | 12 kts | 147° |
| 2026-04-28 18:50 | 52.44387 | -1.73422 | 354 ft | 12 kts | 204° |
| 2026-04-28 18:51 | 52.44327 | -1.73565 | 349 ft | 15 kts | 269° |
| 2026-04-28 18:51 | 52.44442 | -1.73755 | 343 ft | 59 kts | 328° |
| 2026-04-28 18:51 | 52.45217 | -1.74604 | 334 ft | 190 kts | 324° |
| 2026-04-28 18:51 | 52.46679 | -1.76104 | 815 ft | 265 kts | 333° |
| 2026-04-28 18:52 | 52.48399 | -1.77700 | 1350 ft | 259 kts | 331° |
| 2026-04-28 18:52 | 52.49881 | -1.79597 | 1547 ft | 264 kts | 326° |
| 2026-04-28 18:52 | 52.51394 | -1.81645 | 2073 ft | 266 kts | 327° |
| 2026-04-28 18:52 | 52.52778 | -1.83884 | 2495 ft | 273 kts | 306° |
| 2026-04-28 18:53 | 52.53246 | -1.87013 | 3077 ft | 267 kts | 258° |
| 2026-04-28 18:53 | 52.52415 | -1.89963 | 3702 ft | 268 kts | 234° |
| 2026-04-28 18:53 | 52.51340 | -1.92713 | 4080 ft | 271 kts | 234° |
| 2026-04-28 18:53 | 52.49947 | -1.95013 | 4314 ft | 262 kts | 197° |
| 2026-04-28 18:54 | 52.48128 | -1.95399 | 4457 ft | 243 kts | 154° |
| 2026-04-28 18:54 | 52.46521 | -1.94203 | 4336 ft | 235 kts | 145° |
| 2026-04-28 18:54 | 52.45032 | -1.92973 | 4301 ft | 233 kts | 146° |
| 2026-04-28 18:54 | 52.43489 | -1.91725 | 4333 ft | 233 kts | 146° |
| 2026-04-28 18:55 | 52.41942 | -1.90469 | 4322 ft | 233 kts | 146° |
| 2026-04-28 18:55 | 52.40887 | -1.89614 | 4329 ft | 234 kts | 146° |
| 2026-04-28 18:55 | 52.38764 | -1.87898 | 4319 ft | 234 kts | 146° |
| 2026-04-28 18:55 | 52.37190 | -1.86639 | 4312 ft | 233 kts | 147° |
| 2026-04-28 18:56 | 52.35648 | -1.85408 | 4090 ft | 224 kts | 146° |
| 2026-04-28 18:56 | 52.34195 | -1.84273 | 3632 ft | 213 kts | 146° |
| 2026-04-28 18:56 | 52.32789 | -1.83197 | 3229 ft | 211 kts | 146° |
| 2026-04-28 18:56 | 52.31411 | -1.82149 | 2850 ft | 215 kts | 147° |
| 2026-04-28 18:57 | 52.30030 | -1.81098 | 2562 ft | 211 kts | 146° |
| 2026-04-28 18:57 | 52.28676 | -1.80070 | 2440 ft | 209 kts | 146° |
| 2026-04-28 18:57 | 52.27321 | -1.78871 | 2319 ft | 202 kts | 126° |
| 2026-04-28 18:57 | 52.26781 | -1.76765 | 2415 ft | 185 kts | 72° |
| 2026-04-28 18:58 | 52.27397 | -1.74821 | 2398 ft | 184 kts | 54° |
| 2026-04-28 18:58 | 52.28206 | -1.72981 | 2300 ft | 183 kts | 57° |
| 2026-04-28 18:58 | 52.28984 | -1.71132 | 2313 ft | 182 kts | 57° |
| 2026-04-28 18:58 | 52.29766 | -1.69290 | 2326 ft | 183 kts | 57° |
| 2026-04-28 18:59 | 52.30570 | -1.67430 | 2331 ft | 183 kts | 53° |
| 2026-04-28 18:59 | 52.31602 | -1.65942 | 2355 ft | 186 kts | 39° |
| 2026-04-28 18:59 | 52.32603 | -1.64347 | 2350 ft | 184 kts | 64° |
| 2026-04-28 18:59 | 52.33349 | -1.62411 | 2349 ft | 186 kts | 37° |
| 2026-04-28 19:00 | 52.34746 | -1.61823 | 2473 ft | 204 kts | 352° |
| 2026-04-28 19:00 | 52.36148 | -1.62986 | 2553 ft | 211 kts | 321° |
| 2026-04-28 19:00 | 52.37007 | -1.65197 | 2495 ft | 216 kts | 299° |
| 2026-04-28 19:00 | 52.37801 | -1.67454 | 2009 ft | 204 kts | 323° |
| 2026-04-28 19:01 | 52.38981 | -1.68831 | 1526 ft | 185 kts | 351° |
| 2026-04-28 19:01 | 52.40333 | -1.69039 | 1340 ft | 178 kts | 16° |
| 2026-04-28 19:01 | 52.41642 | -1.68942 | 1359 ft | 187 kts | 351° |
| 2026-04-28 19:01 | 52.42959 | -1.69964 | 975 ft | 210 kts | 321° |
| 2026-04-28 19:02 | 52.43846 | -1.72019 | 594 ft | 203 kts | 297° |
| 2026-04-28 19:02 | 52.44833 | -1.74239 | 604 ft | 256 kts | 329° |
| 2026-04-28 19:02 | 52.46403 | -1.76029 | 1129 ft | 245 kts | 329° |
| 2026-04-28 19:02 | 52.47944 | -1.77661 | 2036 ft | 260 kts | 336° |
| 2026-04-28 19:03 | 52.49621 | -1.79327 | 2495 ft | 269 kts | 335° |
| 2026-04-28 19:03 | 52.51262 | -1.81067 | 2909 ft | 269 kts | 324° |
| 2026-04-28 19:03 | 52.52365 | -1.83615 | 3351 ft | 291 kts | 288° |
| 2026-04-28 19:03 | 52.52397 | -1.86981 | 3890 ft | 299 kts | 250° |
| 2026-04-28 19:04 | 52.51548 | -1.90285 | 4288 ft | 301 kts | 245° |
| 2026-04-28 19:04 | 52.50649 | -1.93472 | 4368 ft | 300 kts | 234° |
| 2026-04-28 19:04 | 52.49049 | -1.95920 | 4370 ft | 289 kts | 196° |
| 2026-04-28 19:04 | 52.47008 | -1.96308 | 4407 ft | 271 kts | 156° |
| 2026-04-28 19:05 | 52.45214 | -1.94975 | 4342 ft | 263 kts | 145° |
| 2026-04-28 19:05 | 52.43561 | -1.93568 | 4305 ft | 260 kts | 146° |
| 2026-04-28 19:05 | 52.41819 | -1.92121 | 4322 ft | 261 kts | 146° |
| 2026-04-28 19:05 | 52.40107 | -1.90696 | 4333 ft | 260 kts | 146° |
| 2026-04-28 19:06 | 52.38362 | -1.89237 | 4306 ft | 261 kts | 146° |
| 2026-04-28 19:06 | 52.37229 | -1.88293 | 4311 ft | 260 kts | 146° |
| 2026-04-28 19:06 | 52.35027 | -1.86452 | 4320 ft | 260 kts | 146° |
| 2026-04-28 19:06 | 52.33372 | -1.85070 | 4318 ft | 261 kts | 146° |
| 2026-04-28 19:07 | 52.31697 | -1.83685 | 4310 ft | 260 kts | 146° |
| 2026-04-28 19:07 | 52.30022 | -1.82300 | 4281 ft | 261 kts | 146° |
| 2026-04-28 19:07 | 52.28289 | -1.80880 | 3923 ft | 259 kts | 147° |
| 2026-04-28 19:07 | 52.26626 | -1.79516 | 3554 ft | 255 kts | 146° |
| 2026-04-28 19:08 | 52.24988 | -1.78201 | 3111 ft | 222 kts | 146° |
| 2026-04-28 19:08 | 52.23579 | -1.77123 | 2593 ft | 208 kts | 146° |
| 2026-04-28 19:08 | 52.22336 | -1.75835 | 2373 ft | 194 kts | 115° |
| 2026-04-28 19:08 | 52.22068 | -1.73696 | 2445 ft | 179 kts | 64° |
| 2026-04-28 19:09 | 52.22808 | -1.71804 | 2410 ft | 181 kts | 54° |
| 2026-04-28 19:09 | 52.23610 | -1.69961 | 2277 ft | 180 kts | 56° |
| 2026-04-28 19:09 | 52.24381 | -1.68130 | 2311 ft | 179 kts | 56° |
| 2026-04-28 19:09 | 52.25166 | -1.66284 | 2334 ft | 179 kts | 56° |
| 2026-04-28 19:10 | 52.25944 | -1.64462 | 2314 ft | 179 kts | 57° |
| 2026-04-28 19:10 | 52.26706 | -1.62679 | 2312 ft | 180 kts | 56° |
| 2026-04-28 19:10 | 52.27652 | -1.61136 | 2338 ft | 188 kts | 24° |
| 2026-04-28 19:10 | 52.29096 | -1.61029 | 2420 ft | 201 kts | 0° |
| 2026-04-28 19:11 | 52.30542 | -1.60987 | 2316 ft | 193 kts | 25° |
| 2026-04-28 19:11 | 52.31717 | -1.59872 | 2372 ft | 183 kts | 49° |
| 2026-04-28 19:11 | 52.32794 | -1.58426 | 2407 ft | 189 kts | 21° |
| 2026-04-28 19:11 | 52.34249 | -1.58574 | 2542 ft | 212 kts | 341° |
| 2026-04-28 19:12 | 52.35516 | -1.60212 | 2631 ft | 228 kts | 310° |
| 2026-04-28 19:12 | 52.36244 | -1.62787 | 2648 ft | 237 kts | 294° |
| 2026-04-28 19:12 | 52.36852 | -1.65478 | 2460 ft | 236 kts | 302° |
| 2026-04-28 19:12 | 52.37788 | -1.67647 | 1957 ft | 220 kts | 328° |
| 2026-04-28 19:13 | 52.39041 | -1.69047 | 1439 ft | 202 kts | 341° |
| 2026-04-28 19:13 | 52.40363 | -1.70072 | 1307 ft | 195 kts | 343° |
| 2026-04-28 19:13 | 52.41671 | -1.71157 | 1125 ft | 200 kts | 335° |
| 2026-04-28 19:13 | 52.42920 | -1.72460 | 651 ft | 199 kts | 334° |
| 2026-04-28 19:14 | 52.44201 | -1.73564 | 456 ft | 196 kts | 335° |
| 2026-04-28 19:14 | 52.45345 | -1.74751 | 366 ft | 138 kts | 328° |
| 2026-04-28 19:14 | 52.46205 | -1.75625 | 387 ft | 189 kts | 335° |
| 2026-04-28 19:14 | 52.47219 | -1.76801 | 2112 ft | 182 kts | 320° |
| 2026-04-28 19:15 | 52.48220 | -1.78607 | 3258 ft | 230 kts | 322° |
| 2026-04-28 19:15 | 52.49183 | -1.81183 | 4816 ft | 278 kts | 284° |
| 2026-04-28 19:15 | 52.49214 | -1.84748 | 5370 ft | 309 kts | 252° |
| 2026-04-28 19:15 | 52.48587 | -1.87017 | 5306 ft | 304 kts | 230° |
| 2026-04-28 19:16 | 52.46213 | -1.89621 | 5169 ft | 284 kts | 180° |
| 2026-04-28 19:16 | 52.44205 | -1.89109 | 5106 ft | 263 kts | 146° |
| 2026-04-28 19:16 | 52.42389 | -1.87490 | 5001 ft | 292 kts | 146° |
| 2026-04-28 19:16 | 52.40400 | -1.85757 | 4908 ft | 304 kts | 146° |
| 2026-04-28 19:17 | 52.38330 | -1.83965 | 4718 ft | 305 kts | 146° |
| 2026-04-28 19:17 | 52.36340 | -1.82238 | 4514 ft | 302 kts | 146° |
| 2026-04-28 19:17 | 52.34382 | -1.80553 | 4381 ft | 302 kts | 146° |
| 2026-04-28 19:17 | 52.32424 | -1.78870 | 4307 ft | 302 kts | 146° |
| 2026-04-28 19:18 | 52.30506 | -1.77226 | 4344 ft | 300 kts | 146° |
| 2026-04-28 19:18 | 52.28560 | -1.75557 | 4328 ft | 302 kts | 146° |
| 2026-04-28 19:18 | 52.26614 | -1.73909 | 4327 ft | 300 kts | 146° |
| 2026-04-28 19:18 | 52.24795 | -1.72385 | 4255 ft | 255 kts | 146° |
| 2026-04-28 19:19 | 52.23263 | -1.71167 | 4235 ft | 232 kts | 146° |
| 2026-04-28 19:19 | 52.21753 | -1.69859 | 4365 ft | 224 kts | 132° |
| 2026-04-28 19:19 | 52.20903 | -1.67716 | 4086 ft | 210 kts | 90° |
| 2026-04-28 19:19 | 52.21320 | -1.65309 | 3831 ft | 205 kts | 55° |
| 2026-04-28 19:20 | 52.22226 | -1.63354 | 3483 ft | 205 kts | 56° |
| 2026-04-28 19:20 | 52.23090 | -1.61399 | 3088 ft | 201 kts | 56° |
| 2026-04-28 19:20 | 52.23911 | -1.59523 | 2703 ft | 200 kts | 56° |
| 2026-04-28 19:20 | 52.24723 | -1.57656 | 2503 ft | 198 kts | 56° |
| 2026-04-28 19:21 | 52.25828 | -1.55922 | 2395 ft | 204 kts | 30° |
| 2026-04-28 19:21 | 52.27387 | -1.55575 | 2314 ft | 224 kts | 346° |
| 2026-04-28 19:21 | 52.28864 | -1.57020 | 2436 ft | 235 kts | 332° |
| 2026-04-28 19:21 | 52.30292 | -1.58685 | 2460 ft | 238 kts | 329° |
| 2026-04-28 19:22 | 52.31607 | -1.60353 | 2399 ft | 213 kts | 330° |
| 2026-04-28 19:22 | 52.32431 | -1.61407 | 2319 ft | 199 kts | 329° |
| 2026-04-28 19:22 | 52.34032 | -1.63454 | 2316 ft | 204 kts | 330° |
| 2026-04-28 19:22 | 52.35270 | -1.64989 | 2344 ft | 206 kts | 330° |
| 2026-04-28 19:23 | 52.36548 | -1.66372 | 2295 ft | 200 kts | 350° |
| 2026-04-28 19:23 | 52.37955 | -1.66733 | 2173 ft | 187 kts | 13° |
| 2026-04-28 19:23 | 52.39373 | -1.66798 | 1669 ft | 194 kts | 348° |
| 2026-04-28 19:23 | 52.40640 | -1.68158 | 1336 ft | 217 kts | 310° |
| 2026-04-28 19:24 | 52.41560 | -1.70374 | 1077 ft | 217 kts | 318° |
| 2026-04-28 19:24 | 52.42775 | -1.72075 | 774 ft | 209 kts | 332° |
| 2026-04-28 19:24 | 52.44096 | -1.73446 | 476 ft | 211 kts | 330° |
| 2026-04-28 19:24 | 52.45546 | -1.75015 | 340 ft | 225 kts | 329° |
| 2026-04-28 19:25 | 52.46836 | -1.76418 | 654 ft | 215 kts | 331° |
| 2026-04-28 19:25 | 52.48070 | -1.77649 | 1672 ft | 209 kts | 332° |
| 2026-04-28 19:25 | 52.49284 | -1.79347 | 2119 ft | 220 kts | 320° |
| 2026-04-28 19:25 | 52.50053 | -1.81766 | 2609 ft | 244 kts | 274° |
| 2026-04-28 19:26 | 52.49550 | -1.84573 | 3224 ft | 248 kts | 221° |
| 2026-04-28 19:26 | 52.47850 | -1.85918 | 4015 ft | 283 kts | 173° |
| 2026-04-28 19:26 | 52.45689 | -1.85011 | 4782 ft | 315 kts | 147° |
| 2026-04-28 19:26 | 52.43665 | -1.83197 | 4312 ft | 316 kts | 146° |
| 2026-04-28 19:27 | 52.41608 | -1.81407 | 4313 ft | 312 kts | 146° |
| 2026-04-28 19:27 | 52.39523 | -1.79593 | 4352 ft | 312 kts | 146° |
| 2026-04-28 19:27 | 52.37479 | -1.77818 | 4339 ft | 310 kts | 146° |
| 2026-04-28 19:27 | 52.35503 | -1.76101 | 4347 ft | 309 kts | 146° |
| 2026-04-28 19:28 | 52.33486 | -1.74347 | 4361 ft | 342 kts | 146° |
| 2026-04-28 19:28 | 52.31213 | -1.72324 | 4395 ft | 361 kts | 146° |
| 2026-04-28 19:28 | 52.28772 | -1.70158 | 4348 ft | 362 kts | 146° |
| 2026-04-28 19:28 | 52.26363 | -1.68025 | 4161 ft | 360 kts | 146° |
| 2026-04-28 19:29 | 52.24099 | -1.65896 | 3757 ft | 347 kts | 137° |
| 2026-04-28 19:29 | 52.22931 | -1.64037 | 3490 ft | 316 kts | 118° |
| 2026-04-28 19:29 | 52.22272 | -1.59804 | 2836 ft | 224 kts | 71° |
| 2026-04-28 19:29 | 52.23061 | -1.57569 | 2448 ft | 202 kts | 54° |
| 2026-04-28 19:30 | 52.24012 | -1.55587 | 2284 ft | 200 kts | 42° |
| 2026-04-28 19:30 | 52.25431 | -1.54781 | 2372 ft | 216 kts | 358° |
| 2026-04-28 19:30 | 52.26963 | -1.56007 | 2467 ft | 238 kts | 326° |
| 2026-04-28 19:30 | 52.28358 | -1.57778 | 2501 ft | 236 kts | 332° |
| 2026-04-28 19:31 | 52.29802 | -1.59487 | 2508 ft | 234 kts | 334° |
| 2026-04-28 19:31 | 52.31248 | -1.61188 | 2506 ft | 234 kts | 336° |
| 2026-04-28 19:31 | 52.32818 | -1.62217 | 2539 ft | 221 kts | 358° |
| 2026-04-28 19:31 | 52.34400 | -1.62728 | 2564 ft | 225 kts | 350° |
| 2026-04-28 19:32 | 52.35903 | -1.64125 | 2485 ft | 238 kts | 327° |
| 2026-04-28 19:32 | 52.37300 | -1.65961 | 2123 ft | 234 kts | 333° |
| 2026-04-28 19:32 | 52.38756 | -1.67479 | 1775 ft | 232 kts | 336° |
| 2026-04-28 19:32 | 52.40136 | -1.69013 | 1428 ft | 215 kts | 332° |
| 2026-04-28 19:33 | 52.41420 | -1.70436 | 1125 ft | 206 kts | 333° |
| 2026-04-28 19:33 | 52.42712 | -1.71891 | 791 ft | 202 kts | 330° |
| 2026-04-28 19:33 | 52.43991 | -1.73288 | 487 ft | 211 kts | 330° |
| 2026-04-28 19:33 | 52.45252 | -1.74682 | 330 ft | 187 kts | 328° |
| 2026-04-28 19:34 | 52.45891 | -1.75408 | 304 ft | 4 kts | 314° |